Interlaken, Switzerland
Current Conditions -  °F | °C
As of 8:50 PM on Sunday 23 Nov 2014 (Local Time) from LSMM Reporting Station
Broken Clouds Broken Clouds  
Wind Chill: 43°   Ceiling: 11000
Heat Index: 43°   Visibility: 6mi
Dew Point: 41°   Wind: 2mph
Humidity: 93%   Direction: NA
Pressure: 30.18"   Gusts: NA
Location:  46.69°N, 7.86°E
Report Text: LSMM 231950Z AUTO VRB02KT 9999NDV BKN110 06/05 Q1022 RMK WHT
Loading
Personal Weather Stations






























Interactive Weather Map New forecast layout! Learn more

10-Day Weather Forecast

Advertisements
Track Severe Weather on mobile